Flight Track Log - Related Links

Times and Time Zones

All times are in EDT time to prevent confusion due to time zone crossing. See the SLI2201 flight status page for this flight to view local times or setup timezone preferences in your user account.

Time Position Orientation Groundspeed Altitude Reporting Facility
EDT Latitude Longitude Course Direction KTS MPH feet Rate Location/Type
Sat 07:44:00 PM 28.9172 -110.8932 143° Southeast  Level Estimated
Sat 07:45:00 PM 28.8576 -110.8418 143° Southeast  Level Estimated
Sat 07:46:00 PM 28.7980 -110.7904 143° Southeast  Level Estimated
Sat 07:47:00 PM 28.7383 -110.7391 143° Southeast  Level Estimated
Sat 07:48:00 PM 28.6787 -110.6879 143° Southeast  Level Estimated
Sat 07:49:00 PM 28.6190 -110.6367 143° Southeast  Level Estimated
Sat 07:50:00 PM 28.5593 -110.5855 143° Southeast  Level Estimated
Sat 07:51:00 PM 28.4996 -110.5344 143° Southeast  Level Estimated
Sat 07:52:00 PM 28.4398 -110.4834 143° Southeast  Level Estimated
Sat 07:53:00 PM 28.3801 -110.4325 143° Southeast  Level Estimated
Sat 07:54:00 PM 28.3203 -110.3816 143° Southeast  Level Estimated
Sat 07:55:00 PM 28.2605 -110.3307 143° Southeast  Level Estimated
Sat 07:56:00 PM 28.2007 -110.2799 143° Southeast  Level Estimated
Sat 07:57:00 PM 28.1409 -110.2292 143° Southeast  Level Estimated
Sat 07:58:00 PM 28.0810 -110.1785 143° Southeast  Level Estimated
Sat 07:59:00 PM 28.0212 -110.1279 143° Southeast  Level Estimated
Sat 08:00:00 PM 27.9613 -110.0773 143° Southeast  Level Estimated
Sat 08:01:00 PM 27.9014 -110.0268 143° Southeast  Level Estimated
Sat 08:02:00 PM 27.8415 -109.9764 143° Southeast  Level Estimated
Sat 08:03:00 PM 27.7815 -109.9260 143° Southeast  Level Estimated
Sat 08:04:00 PM 27.7216 -109.8756 143° Southeast  Level Estimated
Sat 08:05:00 PM 27.6616 -109.8253 143° Southeast  Level Estimated
Sat 08:06:00 PM 27.6016 -109.7751 143° Southeast  Level Estimated
Sat 08:07:00 PM 27.5416 -109.7249 143° Southeast  Level Estimated
Sat 08:08:00 PM 27.4816 -109.6748 143° Southeast  Level Estimated
Sat 08:09:00 PM 27.4215 -109.6247 143° Southeast  Level Estimated
Sat 08:10:00 PM 27.3614 -109.5747 144° Southeast  Level Estimated
Sat 08:11:00 PM 27.3013 -109.5248 144° Southeast  Level Estimated
Sat 08:12:00 PM 27.2412 -109.4749 144° Southeast  Level Estimated
Sat 08:13:00 PM 27.1811 -109.4250 144° Southeast  Level Estimated
Sat 08:14:00 PM 27.1210 -109.3752 144° Southeast  Level Estimated
Sat 08:15:00 PM 27.0608 -109.3255 144° Southeast  Level Estimated
Sat 08:16:00 PM 27.0007 -109.2758 144° Southeast  Level Estimated
Sat 08:17:00 PM 26.9405 -109.2262 144° Southeast  Level Estimated
Sat 08:18:00 PM 26.8803 -109.1766 144° Southeast  Level Estimated
Sat 08:19:00 PM 26.8200 -109.1270 144° Southeast  Level Estimated
Sat 08:20:00 PM 26.7598 -109.0776 144° Southeast  Level Estimated
Sat 08:21:00 PM 26.6996 -109.0281 144° Southeast  Level Estimated
Sat 08:22:00 PM 26.6393 -108.9788 144° Southeast  Level Estimated
Sat 08:23:00 PM 26.5790 -108.9294 144° Southeast  Level Estimated
Sat 08:24:00 PM 26.5187 -108.8802 144° Southeast  Level Estimated
Sat 08:25:00 PM 26.4583 -108.8309 144° Southeast  Level Estimated
Sat 08:26:00 PM 26.3980 -108.7818 144° Southeast  Level Estimated
Sat 08:27:00 PM 26.3376 -108.7327 144° Southeast  Level Estimated
Sat 08:28:00 PM 26.2773 -108.6836 144° Southeast  Level Estimated
Sat 08:29:00 PM 26.2169 -108.6346 144° Southeast  Level Estimated
Sat 08:30:00 PM 26.1565 -108.5856 144° Southeast  Level Estimated
Sat 08:31:00 PM 26.0960 -108.5367 144° Southeast  Level Estimated
Sat 08:32:00 PM 26.0356 -108.4879 144° Southeast  Level Estimated
Sat 08:33:00 PM 25.9751 -108.4391 144° Southeast  Level Estimated
Sat 08:34:00 PM 25.9146 -108.3903 144° Southeast  Level Estimated
Sat 08:35:00 PM 25.8542 -108.3416 144° Southeast  Level Estimated
Sat 08:36:00 PM 25.7936 -108.2929 144° Southeast  Level Estimated
Sat 08:37:00 PM 25.7331 -108.2443 144° Southeast  Level Estimated
Sat 08:38:00 PM 25.6726 -108.1958 144° Southeast  Level Estimated
Sat 08:39:00 PM 25.6120 -108.1472 144° Southeast  Level Estimated
Sat 08:40:00 PM 25.5515 -108.0988 144° Southeast  Level Estimated
Sat 08:41:00 PM 25.4909 -108.0504 144° Southeast  Level Estimated
Sat 08:42:00 PM 25.4303 -108.0020 144° Southeast  Level Estimated
Sat 08:43:00 PM 25.3696 -107.9537 144° Southeast  Level Estimated
Sat 08:44:00 PM 25.3090 -107.9054 144° Southeast  Level Estimated
Sat 08:45:00 PM 25.2484 -107.8572 144° Southeast  Level Estimated
Sat 08:46:00 PM 25.1877 -107.8090 144° Southeast  Level Estimated
Sat 08:47:00 PM 25.1270 -107.7609 144° Southeast  Level Estimated
Sat 08:48:00 PM 25.0663 -107.7128 144° Southeast  Level Estimated
Sat 08:49:00 PM 25.0056 -107.6648 144° Southeast  Level Estimated
Sat 08:50:00 PM 24.9449 -107.6168 144° Southeast  Level Estimated
Sat 08:51:00 PM 24.8841 -107.5689 144° Southeast  Level Estimated
Sat 08:52:00 PM 24.8234 -107.5210 144° Southeast  Level Estimated
Sat 08:53:00 PM 24.7645 -107.4747 144° Southeast  Level Estimated
Sat 08:54:00 PM 24.7645 -107.4747 138° Southeast  Level Estimated
Sat 08:55:00 PM 24.7645 -107.4747 138° Southeast  Level Estimated
Sat 08:56:00 PM 24.7645 -107.4747 138° Southeast  Level Estimated
Sat 08:57:00 PM 24.7645 -107.4747 138° Southeast  Level Estimated
Sat 08:58:00 PM 24.7645 -107.4747 138° Southeast  Level Estimated
Sat 08:59:00 PM 24.7645 -107.4747 138° Southeast  Level Estimated
Sat 09:00:00 PM 24.7645 -107.4747 138° Southeast  Level Estimated
Sat 09:01:00 PM 24.7645 -107.4747 138° Southeast  Level Estimated
Sat 09:02:00 PM 24.7645 -107.4747 138° Southeast  Level Estimated
Sat 09:03:00 PM 24.7645 -107.4747 138° Southeast  Level Estimated
Sat 09:04:00 PM 24.7645 -107.4747 138° Southeast  Level Estimated
Sat 09:05:00 PM 24.7645 -107.4747 138° Southeast  Level Estimated
Sat 09:06:00 PM 24.7645 -107.4747 138° Southeast  Level Estimated
Sat 09:07:00 PM 24.7645 -107.4747 138° Southeast  Level Estimated
Sat 09:08:00 PM 24.7645 -107.4747 138° Southeast  Level Estimated
Sat 09:09:00 PM 24.7645 -107.4747 138° Southeast  Level Estimated

Login

Don't have an account? Register now (free) for customized features, flight alerts, and more!